createdAt,value
2017-11-13T00:00:14.111Z,6.76
2017-11-13T00:02:48.804Z,6.75
2017-11-13T00:05:23.275Z,6.76
2017-11-13T00:07:57.949Z,6.73
2017-11-13T00:10:32.388Z,6.72
2017-11-13T00:13:06.352Z,6.61
2017-11-13T00:15:40.844Z,6.70
2017-11-13T00:18:15.323Z,6.70
2017-11-13T00:20:49.723Z,6.73
2017-11-13T00:23:24.215Z,6.70
2017-11-13T00:25:58.727Z,6.67
2017-11-13T00:28:33.185Z,6.70
2017-11-13T00:31:08.064Z,6.69
2017-11-13T00:33:42.512Z,6.60
2017-11-13T00:36:16.906Z,6.60
2017-11-13T00:38:51.360Z,6.55
2017-11-13T00:41:25.764Z,6.57
2017-11-13T00:44:00.264Z,6.57
2017-11-13T00:46:34.792Z,6.55
2017-11-13T00:49:09.403Z,6.49
2017-11-13T00:51:43.825Z,6.48
2017-11-13T00:54:18.828Z,6.48
2017-11-13T00:56:53.210Z,6.50
2017-11-13T00:59:28.175Z,6.44
2017-11-13T01:02:03.047Z,6.47
2017-11-13T01:04:37.623Z,6.45
2017-11-13T01:07:12.029Z,6.45
2017-11-13T01:09:46.888Z,6.48
2017-11-13T01:12:21.366Z,6.50
2017-11-13T01:14:55.783Z,6.47
2017-11-13T01:17:30.248Z,6.49
2017-11-13T01:20:14.099Z,6.51
2017-11-13T01:22:48.607Z,6.53
2017-11-13T01:25:23.200Z,6.45
2017-11-13T01:27:57.621Z,6.43
2017-11-13T01:30:32.003Z,6.45
2017-11-13T01:33:05.849Z,6.44
2017-11-13T01:35:40.268Z,6.36
2017-11-13T01:38:14.759Z,6.35
2017-11-13T01:40:49.213Z,6.31
2017-11-13T01:43:23.709Z,6.31
2017-11-13T01:45:58.160Z,6.28
2017-11-13T01:48:32.416Z,6.28
2017-11-13T01:51:06.862Z,6.27
2017-11-13T01:53:41.509Z,6.26
2017-11-13T01:56:15.907Z,6.26
2017-11-13T01:58:50.385Z,6.25
2017-11-13T02:01:24.908Z,6.22
2017-11-13T02:03:59.331Z,6.24
2017-11-13T02:06:33.199Z,6.21
2017-11-13T02:09:07.347Z,6.21
2017-11-13T02:11:41.749Z,6.21
2017-11-13T02:14:16.447Z,6.20
2017-11-13T02:16:50.859Z,6.17
2017-11-13T02:19:25.232Z,6.17
2017-11-13T02:21:59.491Z,6.20
2017-11-13T02:24:34.013Z,6.19
2017-11-13T02:27:08.155Z,6.17
2017-11-13T02:29:42.441Z,6.18
2017-11-13T02:32:16.584Z,6.23
2017-11-13T02:34:50.774Z,6.16
2017-11-13T02:37:25.308Z,5.99
2017-11-13T02:39:59.802Z,6.16
2017-11-13T02:42:33.994Z,6.12
2017-11-13T02:45:15.285Z,6.09
2017-11-13T02:47:49.180Z,6.14
2017-11-13T02:50:23.136Z,6.15
2017-11-13T02:52:57.344Z,6.01
2017-11-13T02:55:31.699Z,6.08
2017-11-13T02:58:05.648Z,5.99
2017-11-13T03:00:40.138Z,6.12
2017-11-13T03:03:14.436Z,6.01
2017-11-13T03:05:48.884Z,5.98
2017-11-13T03:08:23.552Z,5.82
2017-11-13T03:10:58.040Z,5.72
2017-11-13T03:13:32.605Z,5.72
2017-11-13T03:16:07.462Z,5.70
2017-11-13T03:18:42.183Z,5.64
2017-11-13T03:21:16.627Z,5.40
2017-11-13T03:23:51.294Z,5.65
2017-11-13T03:26:25.889Z,5.63
2017-11-13T03:29:00.503Z,5.65
2017-11-13T03:31:35.024Z,5.71
2017-11-13T03:34:09.507Z,5.65
2017-11-13T03:36:44.012Z,5.68
2017-11-13T03:39:18.475Z,5.75
2017-11-13T03:41:52.983Z,5.70
2017-11-13T03:44:27.510Z,5.73
2017-11-13T03:47:02.030Z,5.68
2017-11-13T03:49:36.783Z,5.64
2017-11-13T03:52:11.245Z,5.68
2017-11-13T03:54:45.767Z,5.58
2017-11-13T03:57:20.248Z,5.67
2017-11-13T03:59:54.722Z,5.70
2017-11-13T04:02:29.175Z,5.66
2017-11-13T04:07:48.022Z,5.50
2017-11-13T04:10:22.863Z,5.54
2017-11-13T04:12:57.521Z,5.54
2017-11-13T04:15:31.935Z,5.52
2017-11-13T04:18:06.449Z,5.51
2017-11-13T04:20:40.851Z,5.54
2017-11-13T04:23:15.104Z,5.49
2017-11-13T04:25:49.487Z,5.51
2017-11-13T04:28:24.149Z,5.53
2017-11-13T04:30:59.207Z,5.54
2017-11-13T04:33:34.515Z,5.54
2017-11-13T04:36:08.900Z,5.47
2017-11-13T04:38:43.331Z,5.45
2017-11-13T04:41:17.813Z,5.50
2017-11-13T04:43:52.365Z,5.49
2017-11-13T04:46:26.751Z,5.34
2017-11-13T04:49:01.434Z,5.51
2017-11-13T04:51:36.143Z,5.46
2017-11-13T04:54:10.728Z,5.47
2017-11-13T04:56:45.128Z,5.44
2017-11-13T04:59:19.541Z,5.40
2017-11-13T05:01:53.922Z,5.44
2017-11-13T05:04:28.509Z,5.47
2017-11-13T05:07:03.000Z,5.44
2017-11-13T05:09:37.250Z,5.50
2017-11-13T05:12:11.663Z,5.44
2017-11-13T05:14:46.135Z,5.48
2017-11-13T05:17:20.659Z,5.44
2017-11-13T05:19:55.159Z,5.42
2017-11-13T05:22:29.540Z,5.41
2017-11-13T05:27:44.064Z,5.39
2017-11-13T05:30:18.139Z,5.40
2017-11-13T05:32:52.731Z,5.42
2017-11-13T05:35:27.214Z,5.40
2017-11-13T05:38:01.783Z,5.40
2017-11-13T05:40:36.171Z,5.41
2017-11-13T05:43:10.623Z,5.39
2017-11-13T05:45:45.122Z,5.37
2017-11-13T05:48:19.882Z,5.39
2017-11-13T05:50:54.531Z,5.38
2017-11-13T05:53:29.252Z,5.37
2017-11-13T05:56:04.416Z,5.40
2017-11-13T05:58:38.931Z,5.40
2017-11-13T06:01:13.343Z,5.40
2017-11-13T06:03:47.852Z,5.40
2017-11-13T06:06:22.324Z,5.37
2017-11-13T06:08:56.952Z,5.37
2017-11-13T06:11:31.377Z,5.35
2017-11-13T06:14:06.024Z,5.37
2017-11-13T06:16:40.466Z,5.38
2017-11-13T06:19:14.980Z,5.37
2017-11-13T06:21:49.391Z,5.36
2017-11-13T06:24:24.024Z,5.37
2017-11-13T06:26:58.640Z,5.38
2017-11-13T06:29:33.036Z,5.40
2017-11-13T06:32:07.475Z,5.42
2017-11-13T06:34:42.062Z,5.36
2017-11-13T06:37:16.533Z,5.38
2017-11-13T06:39:51.091Z,5.37
2017-11-13T06:42:26.283Z,5.41
2017-11-13T06:45:00.887Z,5.38
2017-11-13T06:47:35.367Z,5.39
2017-11-13T06:50:21.589Z,5.38
2017-11-13T06:52:56.031Z,5.43
2017-11-13T06:55:30.495Z,5.38
2017-11-13T06:58:05.100Z,5.36
2017-11-13T07:00:39.564Z,5.36
2017-11-13T07:03:14.111Z,5.43
2017-11-13T07:05:48.384Z,5.46
2017-11-13T07:08:22.893Z,5.38
2017-11-13T07:10:57.683Z,5.45
2017-11-13T07:13:32.174Z,5.41
2017-11-13T07:16:06.588Z,5.47
2017-11-13T07:18:41.003Z,5.47
2017-11-13T07:21:15.421Z,5.51
2017-11-13T07:23:50.039Z,5.42
2017-11-13T07:26:24.275Z,5.44
2017-11-13T07:28:58.720Z,5.47
2017-11-13T07:31:32.937Z,5.45
2017-11-13T07:34:07.353Z,5.40
2017-11-13T07:36:41.619Z,5.44
2017-11-13T07:39:16.263Z,5.49
2017-11-13T07:41:50.657Z,5.46
2017-11-13T07:44:25.163Z,5.45
2017-11-13T07:46:59.579Z,5.47
2017-11-13T07:49:34.207Z,5.42
2017-11-13T07:52:08.679Z,5.44
2017-11-13T07:54:43.312Z,5.47
2017-11-13T07:57:17.821Z,5.19
2017-11-13T07:59:52.194Z,5.50
2017-11-13T08:02:26.694Z,5.51
2017-11-13T08:05:01.345Z,5.50
2017-11-13T08:07:35.933Z,5.43
2017-11-13T08:10:15.136Z,5.43
2017-11-13T08:12:49.532Z,5.44
2017-11-13T08:15:24.051Z,5.59
2017-11-13T08:17:58.526Z,5.50
2017-11-13T08:20:32.965Z,5.62
2017-11-13T08:23:07.394Z,5.56
2017-11-13T08:25:41.877Z,5.62
2017-11-13T08:28:16.501Z,5.64
2017-11-13T08:30:50.724Z,5.66
2017-11-13T08:33:24.728Z,5.58
2017-11-13T08:35:58.964Z,5.62
2017-11-13T08:38:33.551Z,5.68
2017-11-13T08:41:07.941Z,5.68
2017-11-13T08:43:42.431Z,5.58
2017-11-13T08:46:16.960Z,5.68
2017-11-13T08:48:51.329Z,5.73
2017-11-13T08:51:25.780Z,5.73
2017-11-13T08:54:00.568Z,5.71
2017-11-13T08:56:35.059Z,5.77
2017-11-13T08:59:09.619Z,5.69
2017-11-13T09:01:44.043Z,5.68
2017-11-13T09:04:18.722Z,5.71
2017-11-13T09:06:53.117Z,5.76
2017-11-13T09:09:27.584Z,5.78
2017-11-13T09:12:02.107Z,5.75
2017-11-13T09:14:36.731Z,5.73
2017-11-13T09:17:11.247Z,5.70
2017-11-13T09:19:45.819Z,5.66
2017-11-13T09:22:20.290Z,5.49
2017-11-13T09:24:54.739Z,5.61
2017-11-13T09:27:28.776Z,5.66
2017-11-13T09:32:44.964Z,5.60
2017-11-13T09:35:19.462Z,5.67
2017-11-13T09:37:53.888Z,5.37
2017-11-13T09:40:28.287Z,5.61
2017-11-13T09:43:03.056Z,5.59
2017-11-13T09:45:37.570Z,5.72
2017-11-13T09:48:12.172Z,5.63
2017-11-13T09:50:46.611Z,5.68
2017-11-13T09:53:21.068Z,5.72
2017-11-13T09:55:55.563Z,5.65
2017-11-13T09:58:30.056Z,5.66
2017-11-13T10:01:04.511Z,5.71
2017-11-13T10:03:38.928Z,5.62
2017-11-13T10:06:13.347Z,5.71
2017-11-13T10:08:47.464Z,5.74
2017-11-13T10:11:21.660Z,5.78
2017-11-13T10:13:56.228Z,5.77
2017-11-13T10:16:30.533Z,5.83
2017-11-13T10:19:04.838Z,5.77
2017-11-13T10:21:39.243Z,5.84
2017-11-13T10:24:13.573Z,5.82
2017-11-13T10:26:47.789Z,5.88
2017-11-13T10:29:22.474Z,5.81
2017-11-13T10:31:56.840Z,5.89
2017-11-13T10:34:31.290Z,5.86
2017-11-13T10:37:05.794Z,5.94
2017-11-13T10:39:40.451Z,5.87
2017-11-13T10:42:14.903Z,5.96
2017-11-13T10:44:49.410Z,5.85
2017-11-13T10:47:23.844Z,5.92
2017-11-13T10:49:58.904Z,5.98
2017-11-13T10:52:32.978Z,6.06
2017-11-13T10:55:13.750Z,5.93
2017-11-13T10:57:48.184Z,5.89
2017-11-13T11:00:22.095Z,5.90
2017-11-13T11:02:56.303Z,5.94
2017-11-13T11:05:30.640Z,6.00
2017-11-13T11:08:05.279Z,6.03
2017-11-13T11:10:40.411Z,6.05
2017-11-13T11:13:15.014Z,6.01
2017-11-13T11:15:54.933Z,5.98
2017-11-13T11:18:29.251Z,5.97
2017-11-13T11:21:15.860Z,6.06
2017-11-13T11:23:51.740Z,6.03
2017-11-13T11:26:28.635Z,5.99
2017-11-13T11:29:03.240Z,5.99
2017-11-13T11:31:37.880Z,6.10
2017-11-13T11:37:30.570Z,6.07
2017-11-13T11:40:05.195Z,6.05
2017-11-13T11:42:41.802Z,5.90
2017-11-13T11:45:19.897Z,5.96
2017-11-13T11:47:56.732Z,5.89
2017-11-13T11:50:31.028Z,6.02
2017-11-13T11:53:05.488Z,6.00
2017-11-13T11:58:47.586Z,6.01
2017-11-13T12:01:21.954Z,5.98
2017-11-13T12:03:57.148Z,5.96
2017-11-13T12:06:32.452Z,5.95
2017-11-13T12:09:06.959Z,6.00
2017-11-13T12:11:41.415Z,6.07
2017-11-13T12:14:15.991Z,6.07
2017-11-13T12:16:50.583Z,6.02
2017-11-13T12:19:25.023Z,6.01
2017-11-13T12:21:59.431Z,6.00
2017-11-13T12:24:33.924Z,5.98
2017-11-13T12:27:08.788Z,5.97
2017-11-13T12:29:43.456Z,5.95
2017-11-13T12:32:17.941Z,5.97
2017-11-13T12:34:52.467Z,5.97
2017-11-13T12:37:26.962Z,5.96
2017-11-13T12:40:01.580Z,5.92
2017-11-13T12:42:36.184Z,5.67
2017-11-13T12:45:15.640Z,5.93
2017-11-13T12:47:49.844Z,6.03
2017-11-13T12:50:24.316Z,6.01
2017-11-13T12:52:59.281Z,5.96
2017-11-13T12:55:35.202Z,5.95
2017-11-13T12:58:09.777Z,5.91
2017-11-13T13:00:44.344Z,5.92
2017-11-13T13:03:18.346Z,6.03
2017-11-13T13:05:52.961Z,5.97
2017-11-13T13:08:27.476Z,5.94
2017-11-13T13:11:01.973Z,5.94
2017-11-13T13:13:36.495Z,6.02
2017-11-13T13:16:10.984Z,5.97
2017-11-13T13:18:45.488Z,6.06
2017-11-13T13:21:19.980Z,5.98
2017-11-13T13:23:54.352Z,6.04
2017-11-13T13:26:28.836Z,6.00
2017-11-13T13:29:03.280Z,6.01
2017-11-13T13:31:37.748Z,6.00
2017-11-13T13:34:12.264Z,5.98
2017-11-13T13:36:46.744Z,5.95
2017-11-13T13:39:21.326Z,5.97
2017-11-13T13:41:55.723Z,6.05
2017-11-13T13:44:29.948Z,6.04
2017-11-13T13:47:04.414Z,6.00
2017-11-13T13:49:38.916Z,6.06
2017-11-13T13:52:13.370Z,6.08
2017-11-13T13:54:47.991Z,6.09
2017-11-13T13:57:22.396Z,6.14
2017-11-13T13:59:56.938Z,6.11
2017-11-13T14:02:31.519Z,6.08
2017-11-13T14:05:14.283Z,6.05
2017-11-13T14:07:48.797Z,6.06
2017-11-13T14:10:23.239Z,6.07
2017-11-13T14:12:57.791Z,5.97
2017-11-13T14:15:32.379Z,6.02
2017-11-13T14:18:07.361Z,6.00
2017-11-13T14:20:41.881Z,6.01
2017-11-13T14:23:16.591Z,6.04
2017-11-13T14:25:50.989Z,5.94
2017-11-13T14:28:25.452Z,5.98
2017-11-13T14:31:00.001Z,6.02
2017-11-13T14:33:34.589Z,5.96
2017-11-13T14:36:08.988Z,6.00
2017-11-13T14:38:44.015Z,5.99
2017-11-13T14:41:18.447Z,5.96
2017-11-13T14:43:52.999Z,5.93
2017-11-13T14:46:27.389Z,5.91
2017-11-13T14:49:02.013Z,5.93
2017-11-13T14:51:36.575Z,5.92
2017-11-13T14:54:11.260Z,5.93
2017-11-13T14:56:45.871Z,5.91
2017-11-13T14:59:20.421Z,5.96
2017-11-13T15:01:54.897Z,5.92
2017-11-13T15:04:29.396Z,5.91
2017-11-13T15:07:03.935Z,5.91
2017-11-13T15:09:38.424Z,5.93
2017-11-13T15:12:12.831Z,5.90
2017-11-13T15:14:47.375Z,5.87
2017-11-13T15:17:21.789Z,5.87
2017-11-13T15:19:56.285Z,5.90
2017-11-13T15:22:30.972Z,5.87
2017-11-13T15:25:06.079Z,5.83
2017-11-13T15:27:40.691Z,5.83
2017-11-13T15:30:15.407Z,5.80
2017-11-13T15:32:49.915Z,5.85
2017-11-13T15:35:24.375Z,5.86
2017-11-13T15:37:58.883Z,5.71
2017-11-13T15:40:33.371Z,5.80
2017-11-13T15:43:07.975Z,5.80
2017-11-13T15:45:42.445Z,5.79
2017-11-13T15:48:17.039Z,5.79
2017-11-13T15:50:51.419Z,5.77
2017-11-13T15:53:25.988Z,5.77
2017-11-13T15:56:00.448Z,5.83
2017-11-13T15:58:34.880Z,5.77
2017-11-13T16:01:10.749Z,5.77
2017-11-13T16:03:45.298Z,5.81
2017-11-13T16:06:19.799Z,5.81
2017-11-13T16:08:54.322Z,5.78
2017-11-13T16:11:28.724Z,5.71
2017-11-13T16:14:03.239Z,5.78
2017-11-13T16:16:37.809Z,5.80
2017-11-13T16:19:12.223Z,5.82
2017-11-13T16:21:46.704Z,5.77
2017-11-13T16:24:21.654Z,5.79
2017-11-13T16:26:56.113Z,5.82
2017-11-13T16:29:30.611Z,5.80
2017-11-13T16:32:05.075Z,5.77
2017-11-13T16:34:39.416Z,5.78
2017-11-13T16:37:13.815Z,5.77
2017-11-13T16:39:48.199Z,5.35
2017-11-13T16:42:22.607Z,5.77
2017-11-13T16:44:57.543Z,5.66
2017-11-13T16:47:31.899Z,5.76
2017-11-13T16:50:09.563Z,5.77
2017-11-13T16:52:44.098Z,5.77
2017-11-13T16:55:18.682Z,5.78
2017-11-13T16:57:53.236Z,5.77
2017-11-13T17:00:28.092Z,5.83
2017-11-13T17:03:02.563Z,5.77
2017-11-13T17:05:36.960Z,5.76
2017-11-13T17:08:11.575Z,5.77
2017-11-13T17:10:46.027Z,5.72
2017-11-13T17:13:20.463Z,5.71
2017-11-13T17:15:54.881Z,5.72
2017-11-13T17:18:29.883Z,5.72
2017-11-13T17:21:04.343Z,5.68
2017-11-13T17:23:38.968Z,5.69
2017-11-13T17:26:13.395Z,5.66
2017-11-13T17:28:48.091Z,5.65
2017-11-13T17:31:22.556Z,5.67
2017-11-13T17:33:57.150Z,5.63
2017-11-13T17:36:31.419Z,5.63
2017-11-13T17:39:05.230Z,5.62
2017-11-13T17:41:40.066Z,5.64
2017-11-13T17:44:14.539Z,5.60
2017-11-13T17:46:48.923Z,5.62
2017-11-13T17:49:23.499Z,5.60
2017-11-13T17:51:57.890Z,5.63
2017-11-13T17:54:32.269Z,5.64
2017-11-13T17:57:06.638Z,5.63
2017-11-13T17:59:41.140Z,5.65
2017-11-13T18:02:15.377Z,5.61
2017-11-13T18:04:49.825Z,5.59
2017-11-13T18:07:24.253Z,5.58
2017-11-13T18:09:58.823Z,5.55
2017-11-13T18:12:33.208Z,5.49
2017-11-13T18:15:09.618Z,4.62
2017-11-13T18:17:44.257Z,5.47
2017-11-13T18:20:18.632Z,5.42
2017-11-13T18:22:53.059Z,5.37
2017-11-13T18:25:27.484Z,5.37
2017-11-13T18:28:02.058Z,5.36
2017-11-13T18:30:36.950Z,5.32
2017-11-13T18:33:11.615Z,5.32
2017-11-13T18:35:46.117Z,5.29
2017-11-13T18:38:20.651Z,5.26
2017-11-13T18:40:55.060Z,5.29
2017-11-13T18:43:29.519Z,5.30
2017-11-13T18:46:03.911Z,5.12
2017-11-13T18:48:38.800Z,5.30
2017-11-13T18:51:13.300Z,5.27
2017-11-13T18:53:47.940Z,5.26
2017-11-13T18:56:22.366Z,5.25
2017-11-13T18:58:56.849Z,5.22
2017-11-13T19:01:31.277Z,5.20
2017-11-13T19:04:05.992Z,5.27
2017-11-13T19:06:40.800Z,5.26
2017-11-13T19:09:15.356Z,5.27
2017-11-13T19:11:49.744Z,5.18
2017-11-13T19:14:24.260Z,5.31
2017-11-13T19:16:58.647Z,5.28
2017-11-13T19:19:33.396Z,5.27
2017-11-13T19:22:07.811Z,5.30
2017-11-13T19:24:42.579Z,5.26
2017-11-13T19:27:17.070Z,5.31
2017-11-13T19:29:52.036Z,5.33
2017-11-13T19:32:26.412Z,5.35
2017-11-13T19:35:00.925Z,5.33
2017-11-13T19:37:35.390Z,5.33
2017-11-13T19:40:10.223Z,5.32
2017-11-13T19:42:44.665Z,5.32
2017-11-13T19:45:19.031Z,5.30
2017-11-13T19:47:53.453Z,5.29
2017-11-13T19:50:27.908Z,5.29
2017-11-13T19:53:02.295Z,5.26
2017-11-13T19:55:36.712Z,5.21
2017-11-13T19:58:11.301Z,5.21
2017-11-13T20:00:45.803Z,5.20
2017-11-13T20:03:20.339Z,5.21
2017-11-13T20:05:54.767Z,5.21
2017-11-13T20:08:29.323Z,5.13
2017-11-13T20:11:03.827Z,5.20
2017-11-13T20:13:38.430Z,5.18
2017-11-13T20:16:12.875Z,5.19
2017-11-13T20:18:47.412Z,5.13
2017-11-13T20:21:22.039Z,5.13
2017-11-13T20:23:56.426Z,5.15
2017-11-13T20:26:30.884Z,5.15
2017-11-13T20:29:05.360Z,5.11
2017-11-13T20:31:39.746Z,5.08
2017-11-13T20:34:14.187Z,5.07
2017-11-13T20:36:48.700Z,5.06
2017-11-13T20:39:23.251Z,5.06
2017-11-13T20:41:57.660Z,5.01
2017-11-13T20:44:32.096Z,5.05
2017-11-13T20:47:07.144Z,5.03
2017-11-13T20:49:41.540Z,5.00
2017-11-13T20:52:15.966Z,5.02
2017-11-13T20:54:50.266Z,5.08
2017-11-13T20:57:24.748Z,5.09
2017-11-13T20:59:59.134Z,5.04
2017-11-13T21:02:33.436Z,5.01
2017-11-13T21:05:15.364Z,4.98
2017-11-13T21:07:50.060Z,4.95
2017-11-13T21:10:24.517Z,4.96
2017-11-13T21:12:58.948Z,4.96
2017-11-13T21:15:33.402Z,4.92
2017-11-13T21:18:07.912Z,4.90
2017-11-13T21:20:42.331Z,4.92
2017-11-13T21:23:16.919Z,4.91
2017-11-13T21:25:51.344Z,4.91
2017-11-13T21:28:25.904Z,4.84
2017-11-13T21:31:00.315Z,4.84
2017-11-13T21:33:34.784Z,4.84
2017-11-13T21:36:09.271Z,4.83
2017-11-13T21:38:43.880Z,4.80
2017-11-13T21:41:18.332Z,4.80
2017-11-13T21:43:52.815Z,4.80
2017-11-13T21:46:27.302Z,4.79
2017-11-13T21:49:01.741Z,4.76
2017-11-13T21:51:36.139Z,4.76
2017-11-13T21:54:10.679Z,4.76
2017-11-13T21:56:45.203Z,4.75
2017-11-13T21:59:19.800Z,4.75
2017-11-13T22:01:54.259Z,4.74
2017-11-13T22:04:28.708Z,4.73
2017-11-13T22:07:03.096Z,4.72
2017-11-13T22:09:37.727Z,4.73
2017-11-13T22:12:12.170Z,4.73
2017-11-13T22:14:46.934Z,4.72
2017-11-13T22:17:21.363Z,4.77
2017-11-13T22:19:55.964Z,4.74
2017-11-13T22:22:30.432Z,4.74
2017-11-13T22:25:13.583Z,4.74
2017-11-13T22:27:48.430Z,4.71
2017-11-13T22:30:22.836Z,4.73
2017-11-13T22:32:56.839Z,4.74
2017-11-13T22:35:31.218Z,4.70
2017-11-13T22:38:05.807Z,4.72
2017-11-13T22:40:40.331Z,4.74
2017-11-13T22:43:14.727Z,4.70
2017-11-13T22:45:48.980Z,4.73
2017-11-13T22:48:23.567Z,4.72
2017-11-13T22:50:58.088Z,4.54
2017-11-13T22:53:32.531Z,4.78
2017-11-13T22:56:07.014Z,4.79
2017-11-13T22:58:41.527Z,4.80
2017-11-13T23:01:15.995Z,4.79
2017-11-13T23:03:50.533Z,4.79
2017-11-13T23:06:25.127Z,4.74
2017-11-13T23:08:59.752Z,4.77
2017-11-13T23:11:34.150Z,4.78
2017-11-13T23:14:08.780Z,4.59
2017-11-13T23:16:43.250Z,4.66
2017-11-13T23:19:17.790Z,4.64
2017-11-13T23:21:52.292Z,4.63
2017-11-13T23:24:26.684Z,4.60
2017-11-13T23:27:01.132Z,4.58
2017-11-13T23:29:35.555Z,4.56
2017-11-13T23:32:09.965Z,4.52
2017-11-13T23:34:44.554Z,4.50
2017-11-13T23:37:18.967Z,4.49
2017-11-13T23:39:53.563Z,4.50
2017-11-13T23:42:27.862Z,4.50
2017-11-13T23:45:02.291Z,4.47
2017-11-13T23:47:36.786Z,4.49
2017-11-13T23:50:14.803Z,4.53
2017-11-13T23:52:49.315Z,4.54
2017-11-13T23:55:23.641Z,4.56
2017-11-13T23:57:58.305Z,4.61
